createdAt,value
2017-01-10T00:00:22.720Z,0
2017-01-10T00:01:22.130Z,0
2017-01-10T00:02:22.142Z,0
2017-01-10T00:03:22.150Z,0
2017-01-10T00:04:22.196Z,0
2017-01-10T00:05:22.353Z,0
2017-01-10T00:06:22.235Z,0
2017-01-10T00:07:22.197Z,0
2017-01-10T00:08:22.170Z,0
2017-01-10T00:09:22.620Z,0
2017-01-10T00:10:22.198Z,0
2017-01-10T00:11:22.411Z,0
2017-01-10T00:12:22.203Z,0
2017-01-10T00:13:22.204Z,0
2017-01-10T00:14:22.401Z,0
2017-01-10T00:15:22.414Z,0
2017-01-10T00:16:22.209Z,0
2017-01-10T00:17:22.145Z,0
2017-01-10T00:18:22.491Z,0
2017-01-10T00:19:22.424Z,0
2017-01-10T00:20:22.213Z,0
2017-01-10T00:21:22.246Z,0
2017-01-10T00:22:22.224Z,0
2017-01-10T00:23:22.288Z,0
2017-01-10T00:24:22.371Z,0
2017-01-10T00:25:22.181Z,0
2017-01-10T00:26:22.223Z,0
2017-01-10T00:27:22.247Z,0
2017-01-10T00:28:22.290Z,0
2017-01-10T00:29:22.296Z,0
2017-01-10T00:30:22.168Z,0
2017-01-10T00:31:22.272Z,0
2017-01-10T00:32:22.296Z,0
2017-01-10T00:33:22.205Z,0
2017-01-10T00:34:22.338Z,0
2017-01-10T00:35:23.399Z,0
2017-01-10T00:36:22.232Z,0
2017-01-10T00:37:22.194Z,0
2017-01-10T00:38:22.256Z,0
2017-01-10T00:39:22.206Z,0
2017-01-10T00:40:22.198Z,0
2017-01-10T00:41:22.322Z,0
2017-01-10T00:42:22.170Z,0
2017-01-10T00:43:22.213Z,0
2017-01-10T00:44:22.344Z,0
2017-01-10T00:45:22.193Z,0
2017-01-10T00:46:22.881Z,0
2017-01-10T00:47:22.471Z,0
2017-01-10T00:48:22.429Z,0
2017-01-10T00:49:22.230Z,0
2017-01-10T00:50:23.531Z,0
2017-01-10T00:51:22.187Z,0
2017-01-10T00:52:22.521Z,0
2017-01-10T00:53:22.738Z,0
2017-01-10T00:54:22.796Z,0
2017-01-10T00:55:22.228Z,0
2017-01-10T00:56:23.121Z,0
2017-01-10T00:57:22.175Z,0
2017-01-10T00:58:22.181Z,0
2017-01-10T00:59:22.929Z,0
2017-01-10T01:00:22.333Z,0
2017-01-10T01:01:22.727Z,0
2017-01-10T01:02:22.200Z,0
2017-01-10T01:03:22.189Z,0
2017-01-10T01:04:22.223Z,0
2017-01-10T01:05:22.215Z,0
2017-01-10T01:06:22.233Z,0
2017-01-10T01:07:22.234Z,0
2017-01-10T01:08:22.325Z,0
2017-01-10T01:09:22.285Z,0
2017-01-10T01:10:22.231Z,0
2017-01-10T01:11:22.183Z,0
2017-01-10T01:12:22.188Z,0
2017-01-10T01:13:22.463Z,0
2017-01-10T01:14:22.260Z,0
2017-01-10T01:15:22.324Z,0
2017-01-10T01:16:22.221Z,0
2017-01-10T01:17:22.353Z,0
2017-01-10T01:18:22.975Z,0
2017-01-10T01:19:22.215Z,0
2017-01-10T01:20:22.218Z,0
2017-01-10T01:21:23.111Z,0
2017-01-10T01:22:22.210Z,0
2017-01-10T01:23:22.179Z,0
2017-01-10T01:24:22.196Z,0
2017-01-10T01:25:22.340Z,0
2017-01-10T01:26:22.378Z,0
2017-01-10T01:27:22.151Z,0
2017-01-10T01:28:22.194Z,0
2017-01-10T01:29:22.236Z,0
2017-01-10T01:30:22.208Z,0
2017-01-10T01:31:22.215Z,0
2017-01-10T01:32:22.296Z,0
2017-01-10T01:33:22.208Z,0
2017-01-10T01:34:22.244Z,0
2017-01-10T01:35:22.221Z,0
2017-01-10T01:36:22.191Z,0
2017-01-10T01:37:22.291Z,0
2017-01-10T01:38:22.183Z,0
2017-01-10T01:39:22.524Z,0
2017-01-10T01:40:22.965Z,0
2017-01-10T01:41:23.530Z,0
2017-01-10T01:42:22.244Z,0
2017-01-10T01:43:23.562Z,0
2017-01-10T01:44:22.299Z,0
2017-01-10T01:45:22.391Z,0
2017-01-10T01:46:22.268Z,0
2017-01-10T01:47:23.231Z,0
2017-01-10T01:48:23.124Z,0
2017-01-10T01:49:23.485Z,0
2017-01-10T01:50:23.477Z,0
2017-01-10T01:51:22.183Z,0
2017-01-10T01:52:23.100Z,0
2017-01-10T01:53:22.226Z,0
2017-01-10T01:54:22.232Z,0
2017-01-10T01:55:23.268Z,0
2017-01-10T01:56:22.288Z,0
2017-01-10T01:57:22.928Z,0
2017-01-10T01:58:22.202Z,0
2017-01-10T01:59:22.211Z,0
2017-01-10T02:00:22.773Z,0
2017-01-10T02:01:22.413Z,0
2017-01-10T02:02:22.202Z,0
2017-01-10T02:03:22.198Z,0
2017-01-10T02:04:22.253Z,0
2017-01-10T02:05:23.324Z,0
2017-01-10T02:06:23.257Z,0
2017-01-10T02:07:22.211Z,0
2017-01-10T02:08:22.985Z,0
2017-01-10T02:09:23.302Z,0
2017-01-10T02:10:22.198Z,0
2017-01-10T02:11:22.903Z,0
2017-01-10T02:12:22.800Z,0
2017-01-10T02:13:22.232Z,0
2017-01-10T02:14:22.244Z,0
2017-01-10T02:15:22.251Z,0
2017-01-10T02:16:22.547Z,0
2017-01-10T02:17:22.384Z,0
2017-01-10T02:18:22.235Z,0
2017-01-10T02:19:22.346Z,0
2017-01-10T02:20:22.289Z,0
2017-01-10T02:21:22.263Z,0
2017-01-10T02:22:22.234Z,0
2017-01-10T02:23:22.328Z,0
2017-01-10T02:24:22.725Z,0
2017-01-10T02:25:22.631Z,0
2017-01-10T02:26:22.277Z,0
2017-01-10T02:27:22.264Z,0
2017-01-10T02:28:22.600Z,0
2017-01-10T02:29:22.354Z,0
2017-01-10T02:30:22.269Z,0
2017-01-10T02:31:22.234Z,0
2017-01-10T02:32:22.267Z,0
2017-01-10T02:33:22.546Z,0
2017-01-10T02:34:22.283Z,0
2017-01-10T02:35:22.305Z,0
2017-01-10T02:36:22.277Z,0
2017-01-10T02:37:22.324Z,0
2017-01-10T02:38:22.273Z,0
2017-01-10T02:39:22.254Z,0
2017-01-10T02:40:22.261Z,0
2017-01-10T02:41:22.235Z,0
2017-01-10T02:42:22.260Z,0
2017-01-10T02:43:22.211Z,0
2017-01-10T02:44:22.636Z,0
2017-01-10T02:45:22.241Z,0
2017-01-10T02:46:22.258Z,0
2017-01-10T02:47:22.389Z,0
2017-01-10T02:48:22.267Z,0
2017-01-10T02:49:22.283Z,0
2017-01-10T02:50:22.247Z,0
2017-01-10T02:51:22.238Z,0
2017-01-10T02:52:22.229Z,0
2017-01-10T02:53:22.238Z,0
2017-01-10T02:54:22.231Z,0
2017-01-10T02:55:22.275Z,0
2017-01-10T02:56:22.283Z,0
2017-01-10T02:57:22.241Z,0
2017-01-10T02:58:22.255Z,0
2017-01-10T02:59:22.254Z,0
2017-01-10T03:00:22.230Z,0
2017-01-10T03:01:22.236Z,0
2017-01-10T03:02:22.345Z,0
2017-01-10T03:03:22.229Z,0
2017-01-10T03:04:22.456Z,0
2017-01-10T03:05:22.231Z,0
2017-01-10T03:06:22.213Z,0
2017-01-10T03:07:22.292Z,0
2017-01-10T03:08:22.267Z,0
2017-01-10T03:09:22.263Z,0
2017-01-10T03:10:22.285Z,0
2017-01-10T03:11:22.234Z,0
2017-01-10T03:12:22.221Z,0
2017-01-10T03:13:22.232Z,0
2017-01-10T03:14:22.292Z,0
2017-01-10T03:15:22.225Z,0
2017-01-10T03:16:22.247Z,0
2017-01-10T03:17:22.244Z,0
2017-01-10T03:18:22.289Z,0
2017-01-10T03:19:22.314Z,0
2017-01-10T03:20:22.232Z,0
2017-01-10T03:21:22.247Z,0
2017-01-10T03:22:22.303Z,0
2017-01-10T03:23:22.327Z,0
2017-01-10T03:24:22.316Z,0
2017-01-10T03:25:22.254Z,0
2017-01-10T03:26:22.271Z,0
2017-01-10T03:27:22.289Z,0
2017-01-10T03:28:22.295Z,0
2017-01-10T03:29:22.335Z,0
2017-01-10T03:30:22.292Z,0
2017-01-10T03:31:22.277Z,0
2017-01-10T03:32:22.289Z,0
2017-01-10T03:33:35.150Z,0
2017-01-10T03:34:22.320Z,0
2017-01-10T03:35:22.292Z,0
2017-01-10T03:36:22.299Z,0
2017-01-10T03:37:22.289Z,0
2017-01-10T03:38:22.328Z,0
2017-01-10T03:39:22.347Z,0
2017-01-10T03:40:22.312Z,0
2017-01-10T03:41:28.185Z,0
2017-01-10T03:42:28.107Z,0
2017-01-10T03:43:22.291Z,0
2017-01-10T03:44:34.041Z,0
2017-01-10T03:45:22.266Z,0
2017-01-10T03:46:24.097Z,0
2017-01-10T03:47:22.293Z,0
2017-01-10T03:48:22.241Z,0
2017-01-10T03:49:22.246Z,0
2017-01-10T03:50:22.251Z,0
2017-01-10T03:51:22.230Z,0
2017-01-10T03:52:22.249Z,0
2017-01-10T03:53:22.315Z,0
2017-01-10T03:54:22.250Z,0
2017-01-10T03:55:22.271Z,0
2017-01-10T03:56:22.280Z,0
2017-01-10T03:57:22.243Z,0
2017-01-10T03:58:22.307Z,0
2017-01-10T03:59:22.241Z,0
2017-01-10T04:00:22.250Z,0
2017-01-10T04:02:22.249Z,0
2017-01-10T04:03:22.353Z,0
2017-01-10T04:04:22.360Z,0
2017-01-10T04:05:22.289Z,0
2017-01-10T04:06:22.337Z,0
2017-01-10T04:07:22.268Z,0
2017-01-10T04:08:22.311Z,0
2017-01-10T04:09:22.356Z,0
2017-01-10T04:10:22.274Z,0
2017-01-10T04:11:28.031Z,0
2017-01-10T04:12:22.259Z,0
2017-01-10T04:13:28.010Z,0
2017-01-10T04:15:28.109Z,0
2017-01-10T04:16:22.314Z,0
2017-01-10T04:17:22.339Z,0
2017-01-10T04:18:22.346Z,0
2017-01-10T04:19:22.400Z,0
2017-01-10T04:20:22.323Z,0
2017-01-10T04:21:22.311Z,0
2017-01-10T04:22:22.304Z,0
2017-01-10T04:23:22.371Z,0
2017-01-10T04:24:22.346Z,0
2017-01-10T04:25:22.286Z,0
2017-01-10T04:26:22.279Z,0
2017-01-10T04:27:22.347Z,0
2017-01-10T04:28:22.374Z,0
2017-01-10T04:29:22.724Z,0
2017-01-10T04:30:22.315Z,0
2017-01-10T04:31:22.286Z,0
2017-01-10T04:32:22.321Z,0
2017-01-10T04:33:22.304Z,0
2017-01-10T04:34:22.335Z,0
2017-01-10T04:35:22.318Z,0
2017-01-10T04:36:22.333Z,0
2017-01-10T04:37:22.330Z,0
2017-01-10T04:38:22.337Z,0
2017-01-10T04:39:22.362Z,0
2017-01-10T04:40:22.371Z,0
2017-01-10T04:41:22.395Z,0
2017-01-10T04:42:22.381Z,0
2017-01-10T04:43:22.429Z,0
2017-01-10T04:44:22.360Z,0
2017-01-10T04:45:22.385Z,0
2017-01-10T04:46:22.363Z,0
2017-01-10T04:47:22.343Z,0
2017-01-10T04:48:22.338Z,0
2017-01-10T04:49:22.343Z,0
2017-01-10T04:50:22.349Z,0
2017-01-10T04:51:22.324Z,0
2017-01-10T04:52:22.393Z,0
2017-01-10T04:53:22.337Z,0
2017-01-10T04:54:22.372Z,0
2017-01-10T04:55:22.335Z,0
2017-01-10T04:56:22.366Z,0
2017-01-10T04:57:22.390Z,0
2017-01-10T04:58:22.400Z,0
2017-01-10T04:59:22.417Z,0
2017-01-10T05:00:22.361Z,0
2017-01-10T05:01:22.411Z,0
2017-01-10T05:02:22.380Z,0
2017-01-10T05:03:22.401Z,0
2017-01-10T05:04:22.402Z,0
2017-01-10T05:05:22.382Z,0
2017-01-10T05:06:22.365Z,0
2017-01-10T05:07:22.370Z,0
2017-01-10T05:08:22.401Z,0
2017-01-10T05:09:22.447Z,0
2017-01-10T05:10:22.365Z,0
2017-01-10T05:11:22.383Z,0
2017-01-10T05:12:22.389Z,0
2017-01-10T05:13:22.378Z,0
2017-01-10T05:14:22.343Z,0
2017-01-10T05:15:22.394Z,0
2017-01-10T05:16:22.359Z,0
2017-01-10T05:17:22.402Z,0
2017-01-10T05:18:22.371Z,0
2017-01-10T05:19:22.479Z,0
2017-01-10T05:20:22.468Z,0
2017-01-10T05:21:22.444Z,0
2017-01-10T05:22:22.361Z,0
2017-01-10T05:23:22.380Z,0
2017-01-10T05:24:22.381Z,0
2017-01-10T05:25:22.396Z,0
2017-01-10T05:26:22.374Z,0
2017-01-10T05:27:22.381Z,0
2017-01-10T05:28:22.416Z,0
2017-01-10T05:29:22.390Z,0
2017-01-10T05:30:22.370Z,0
2017-01-10T05:31:22.339Z,0
2017-01-10T05:32:22.397Z,0
2017-01-10T05:33:22.469Z,0
2017-01-10T05:34:22.367Z,0
2017-01-10T05:35:22.314Z,0
2017-01-10T05:36:22.349Z,0
2017-01-10T05:37:22.376Z,0
2017-01-10T05:38:22.390Z,0
2017-01-10T05:39:22.415Z,0
2017-01-10T05:40:22.376Z,0
2017-01-10T05:41:22.403Z,0
2017-01-10T05:42:22.379Z,0
2017-01-10T05:43:22.517Z,0
2017-01-10T05:44:22.390Z,0
2017-01-10T05:45:22.392Z,0
2017-01-10T05:46:22.347Z,0
2017-01-10T05:47:22.340Z,0
2017-01-10T05:48:22.811Z,0
2017-01-10T05:49:22.369Z,0
2017-01-10T05:50:22.361Z,0
2017-01-10T05:51:22.353Z,0
2017-01-10T05:52:22.372Z,0
2017-01-10T05:53:22.963Z,0
2017-01-10T05:54:22.374Z,0
2017-01-10T05:55:22.363Z,0
2017-01-10T05:56:22.396Z,0
2017-01-10T05:57:22.467Z,0
2017-01-10T05:58:22.510Z,0
2017-01-10T05:59:22.366Z,0
2017-01-10T06:00:22.373Z,0
2017-01-10T06:01:22.415Z,0
2017-01-10T06:02:22.417Z,0
2017-01-10T06:03:22.404Z,0
2017-01-10T06:04:22.411Z,0
2017-01-10T06:05:22.431Z,0
2017-01-10T06:06:22.432Z,0
2017-01-10T06:07:22.453Z,0
2017-01-10T06:08:22.459Z,0
2017-01-10T06:09:22.431Z,0
2017-01-10T06:10:22.440Z,0
2017-01-10T06:11:22.407Z,0
2017-01-10T06:12:22.368Z,0
2017-01-10T06:13:22.419Z,0
2017-01-10T06:14:22.597Z,0
2017-01-10T06:15:22.422Z,0
2017-01-10T06:16:22.365Z,0
2017-01-10T06:17:22.437Z,0
2017-01-10T06:18:22.853Z,0
2017-01-10T06:19:22.402Z,0
2017-01-10T06:20:22.447Z,0
2017-01-10T06:21:22.363Z,0
2017-01-10T06:22:22.575Z,0
2017-01-10T06:23:22.415Z,0
2017-01-10T06:24:23.129Z,0
2017-01-10T06:25:22.381Z,0
2017-01-10T06:26:22.418Z,0
2017-01-10T06:27:22.416Z,0
2017-01-10T06:28:22.390Z,0
2017-01-10T06:29:22.432Z,0
2017-01-10T06:30:22.431Z,0
2017-01-10T06:31:22.426Z,0
2017-01-10T06:32:22.414Z,0
2017-01-10T06:33:22.394Z,0
2017-01-10T06:34:22.431Z,0
2017-01-10T06:35:22.415Z,0
2017-01-10T06:36:22.414Z,0
2017-01-10T06:37:22.465Z,0
2017-01-10T06:38:22.413Z,0
2017-01-10T06:39:22.388Z,0
2017-01-10T06:40:22.396Z,0
2017-01-10T06:41:22.396Z,0
2017-01-10T06:42:22.425Z,0
2017-01-10T06:43:22.503Z,0
2017-01-10T06:44:22.389Z,0
2017-01-10T06:45:22.412Z,0
2017-01-10T06:46:22.383Z,0
2017-01-10T06:47:22.512Z,0
2017-01-10T06:48:22.463Z,0
2017-01-10T06:49:22.489Z,0
2017-01-10T06:50:22.415Z,0
2017-01-10T06:51:22.471Z,0
2017-01-10T06:52:22.426Z,0
2017-01-10T06:53:22.963Z,0
2017-01-10T06:54:22.460Z,0
2017-01-10T06:55:22.391Z,0
2017-01-10T06:56:22.420Z,0
2017-01-10T06:57:22.452Z,0
2017-01-10T06:58:22.633Z,4
2017-01-10T06:59:22.419Z,4
2017-01-10T07:00:22.464Z,4
2017-01-10T07:01:22.605Z,4
2017-01-10T07:02:23.172Z,0
2017-01-10T07:03:23.020Z,0
2017-01-10T07:04:22.950Z,4
2017-01-10T07:05:22.688Z,4
2017-01-10T07:06:22.644Z,4
2017-01-10T07:07:22.921Z,8
2017-01-10T07:08:22.454Z,4
2017-01-10T07:09:22.458Z,4
2017-01-10T07:10:31.329Z,4
2017-01-10T07:11:24.567Z,4
2017-01-10T07:12:23.002Z,8
2017-01-10T07:13:22.451Z,8
2017-01-10T07:14:22.454Z,8
2017-01-10T07:15:22.468Z,8
2017-01-10T07:16:22.432Z,8
2017-01-10T07:17:22.469Z,8
2017-01-10T07:18:22.959Z,12
2017-01-10T07:19:22.506Z,12
2017-01-10T07:20:22.474Z,16
2017-01-10T07:21:22.858Z,16
2017-01-10T07:22:22.832Z,16
2017-01-10T07:23:22.449Z,20
2017-01-10T07:24:22.509Z,20
2017-01-10T07:25:22.475Z,24
2017-01-10T07:26:22.397Z,24
2017-01-10T07:27:22.596Z,20
2017-01-10T07:28:22.509Z,28
2017-01-10T07:29:22.845Z,28
2017-01-10T07:30:22.427Z,32
2017-01-10T07:31:22.434Z,40
2017-01-10T07:32:22.456Z,48
2017-01-10T07:33:22.442Z,48
2017-01-10T07:34:22.462Z,56
2017-01-10T07:35:22.797Z,56
2017-01-10T07:36:22.416Z,60
2017-01-10T07:37:22.461Z,64
2017-01-10T07:38:22.483Z,64
2017-01-10T07:39:22.556Z,72
2017-01-10T07:40:23.227Z,76
2017-01-10T07:41:22.575Z,84
2017-01-10T07:42:23.505Z,96
2017-01-10T07:43:22.481Z,96
2017-01-10T07:44:22.487Z,116
2017-01-10T07:45:23.520Z,124
2017-01-10T07:46:22.464Z,132
2017-01-10T07:47:22.493Z,128
2017-01-10T07:48:22.431Z,128
2017-01-10T07:49:22.611Z,164
2017-01-10T07:50:22.439Z,180
2017-01-10T07:51:22.579Z,184
2017-01-10T07:52:22.508Z,200
2017-01-10T07:53:22.491Z,232
2017-01-10T07:54:22.495Z,264
2017-01-10T07:55:22.564Z,284
2017-01-10T07:56:22.551Z,312
2017-01-10T07:57:28.920Z,344
2017-01-10T07:58:29.583Z,368
2017-01-10T07:59:22.573Z,440
2017-01-10T08:00:22.723Z,464
2017-01-10T08:01:22.586Z,476
2017-01-10T08:02:22.533Z,468
2017-01-10T08:03:22.544Z,496
2017-01-10T08:04:22.534Z,484
2017-01-10T08:05:22.794Z,428
2017-01-10T08:06:22.496Z,444
2017-01-10T08:07:22.475Z,444
2017-01-10T08:08:22.480Z,460
2017-01-10T08:09:22.517Z,484
2017-01-10T08:10:23.085Z,480
2017-01-10T08:11:22.480Z,420
2017-01-10T08:12:22.458Z,356
2017-01-10T08:13:22.464Z,324
2017-01-10T08:14:22.471Z,352
2017-01-10T08:15:22.492Z,344
2017-01-10T08:16:22.545Z,316
2017-01-10T08:17:22.464Z,280
2017-01-10T08:18:23.399Z,312
2017-01-10T08:19:22.636Z,360
2017-01-10T08:20:22.500Z,364
2017-01-10T08:21:22.512Z,388
2017-01-10T08:22:22.517Z,428
2017-01-10T08:23:22.499Z,468
2017-01-10T08:24:22.499Z,492
2017-01-10T08:25:22.565Z,512
2017-01-10T08:26:22.757Z,528
2017-01-10T08:27:22.562Z,524
2017-01-10T08:28:22.705Z,504
2017-01-10T08:29:22.470Z,456
2017-01-10T08:30:22.469Z,436
2017-01-10T08:31:22.460Z,420
2017-01-10T08:32:22.542Z,392
2017-01-10T08:33:22.548Z,356
2017-01-10T08:34:22.881Z,332
2017-01-10T08:35:22.578Z,376
2017-01-10T08:36:22.551Z,400
2017-01-10T08:37:22.524Z,392
2017-01-10T08:38:22.554Z,388
2017-01-10T08:39:22.503Z,348
2017-01-10T08:40:22.509Z,340
2017-01-10T08:41:22.503Z,312
2017-01-10T08:42:22.538Z,292
2017-01-10T08:43:22.580Z,308
2017-01-10T08:44:22.690Z,380
2017-01-10T08:45:22.512Z,416
2017-01-10T08:46:22.651Z,400
2017-01-10T08:47:22.726Z,404
2017-01-10T08:48:22.579Z,428
2017-01-10T08:49:22.547Z,420
2017-01-10T08:50:22.547Z,452
2017-01-10T08:51:22.502Z,504
2017-01-10T08:52:22.512Z,608
2017-01-10T08:53:22.512Z,656
2017-01-10T08:54:22.521Z,692
2017-01-10T08:55:22.587Z,780
2017-01-10T08:56:22.584Z,876
2017-01-10T08:57:22.542Z,924
2017-01-10T08:58:22.551Z,868
2017-01-10T08:59:22.572Z,920
2017-01-10T09:00:22.580Z,1068
2017-01-10T09:01:22.550Z,1148
2017-01-10T09:02:22.549Z,1212
2017-01-10T09:03:22.715Z,1252
2017-01-10T09:04:22.532Z,1236
2017-01-10T09:05:22.552Z,1188
2017-01-10T09:06:22.496Z,1280
2017-01-10T09:07:22.484Z,1344
2017-01-10T09:08:22.486Z,1436
2017-01-10T09:09:22.535Z,1392
2017-01-10T09:10:22.525Z,1628
2017-01-10T09:11:22.493Z,1544
2017-01-10T09:12:22.515Z,1516
2017-01-10T09:13:22.489Z,1700
2017-01-10T09:14:22.522Z,1708
2017-01-10T09:15:22.508Z,1620
2017-01-10T09:16:22.513Z,1800
2017-01-10T09:17:22.504Z,1832
2017-01-10T09:18:22.512Z,1752
2017-01-10T09:19:22.534Z,1740
2017-01-10T09:20:22.920Z,1892
2017-01-10T09:21:22.498Z,1836
2017-01-10T09:22:22.522Z,1868
2017-01-10T09:23:22.653Z,1756
2017-01-10T09:24:22.506Z,1808
2017-01-10T09:25:22.523Z,1868
2017-01-10T09:26:22.507Z,2064
2017-01-10T09:27:22.471Z,2216
2017-01-10T09:28:22.498Z,2308
2017-01-10T09:29:22.535Z,2420
2017-01-10T09:30:22.484Z,2644
2017-01-10T09:31:22.778Z,2616
2017-01-10T09:32:22.648Z,2568
2017-01-10T09:33:22.525Z,2224
2017-01-10T09:34:22.554Z,2064
2017-01-10T09:35:22.521Z,2008
2017-01-10T09:36:22.584Z,2004
2017-01-10T09:37:23.532Z,2092
2017-01-10T09:38:22.620Z,2344
2017-01-10T09:39:22.617Z,2536
2017-01-10T09:40:22.561Z,2624
2017-01-10T09:41:22.503Z,2644
2017-01-10T09:42:22.543Z,2856
2017-01-10T09:43:22.523Z,2992
2017-01-10T09:44:23.357Z,3168
2017-01-10T09:45:22.614Z,3512
2017-01-10T09:46:22.519Z,3644
2017-01-10T09:47:22.523Z,3676
2017-01-10T09:48:22.515Z,3416
2017-01-10T09:49:22.529Z,3500
2017-01-10T09:50:22.504Z,3648
2017-01-10T09:51:22.475Z,3944
2017-01-10T09:52:22.542Z,4272
2017-01-10T09:53:22.667Z,4364
2017-01-10T09:54:22.588Z,5016
2017-01-10T09:55:22.612Z,5272
2017-01-10T09:56:22.605Z,4984
2017-01-10T09:57:23.344Z,4920
2017-01-10T09:58:22.622Z,4676
2017-01-10T09:59:22.573Z,4612
2017-01-10T10:00:22.669Z,4456
2017-01-10T10:01:22.689Z,4624
2017-01-10T10:02:22.636Z,4544
2017-01-10T10:03:22.602Z,4516
2017-01-10T10:04:22.659Z,4340
2017-01-10T10:05:22.592Z,4496
2017-01-10T10:06:22.559Z,4348
2017-01-10T10:07:22.609Z,4252
2017-01-10T10:08:22.639Z,4204
2017-01-10T10:09:22.870Z,4368
2017-01-10T10:10:22.593Z,4168
2017-01-10T10:11:22.600Z,4580
2017-01-10T10:12:22.513Z,3908
2017-01-10T10:13:22.552Z,3704
2017-01-10T10:14:22.559Z,3392
2017-01-10T10:15:22.567Z,3372
2017-01-10T10:16:22.509Z,3604
2017-01-10T10:17:22.622Z,3608
2017-01-10T10:18:22.552Z,3264
2017-01-10T10:19:22.523Z,3584
2017-01-10T10:20:22.632Z,3712
2017-01-10T10:21:22.537Z,3472
2017-01-10T10:22:22.653Z,3352
2017-01-10T10:23:22.691Z,3248
2017-01-10T10:24:22.535Z,3468
2017-01-10T10:25:23.566Z,3596
2017-01-10T10:26:22.543Z,3280
2017-01-10T10:27:22.517Z,3252
2017-01-10T10:28:22.527Z,3080
2017-01-10T10:29:22.541Z,2792
2017-01-10T10:30:22.832Z,2852
2017-01-10T10:31:22.548Z,2680
2017-01-10T10:32:22.538Z,2724
2017-01-10T10:33:22.532Z,2476
2017-01-10T10:34:22.531Z,2268
2017-01-10T10:35:22.712Z,2384
2017-01-10T10:36:22.526Z,2356
2017-01-10T10:37:22.545Z,2324
2017-01-10T10:38:22.594Z,2428
2017-01-10T10:39:22.543Z,2536
2017-01-10T10:40:23.478Z,2568
2017-01-10T10:41:22.664Z,2952
2017-01-10T10:42:22.596Z,3328
2017-01-10T10:43:22.590Z,3532
2017-01-10T10:44:22.593Z,3448
2017-01-10T10:45:22.589Z,3940
2017-01-10T10:46:22.614Z,4004
2017-01-10T10:47:22.601Z,4200
2017-01-10T10:48:22.573Z,4368
2017-01-10T10:49:22.549Z,4420
2017-01-10T10:50:22.565Z,4596
2017-01-10T10:51:22.665Z,4540
2017-01-10T10:52:22.571Z,4768
2017-01-10T10:53:22.542Z,4616
2017-01-10T10:54:22.561Z,4772
2017-01-10T10:55:22.498Z,4996
2017-01-10T10:56:22.672Z,5448
2017-01-10T10:57:22.522Z,5968
2017-01-10T10:58:22.725Z,5872
2017-01-10T10:59:23.182Z,6188
2017-01-10T11:00:22.517Z,6324
2017-01-10T11:01:22.534Z,5880
2017-01-10T11:02:22.528Z,5584
2017-01-10T11:03:22.535Z,5560
2017-01-10T11:04:22.562Z,6104
2017-01-10T11:05:22.651Z,5880
2017-01-10T11:06:22.574Z,5888
2017-01-10T11:07:22.561Z,6112
2017-01-10T11:08:22.542Z,6212
2017-01-10T11:09:22.564Z,6248
2017-01-10T11:10:22.606Z,6380
2017-01-10T11:11:22.634Z,6280
2017-01-10T11:12:22.537Z,6004
2017-01-10T11:13:22.563Z,5952
2017-01-10T11:14:22.662Z,6260
2017-01-10T11:15:22.908Z,5612
2017-01-10T11:16:22.551Z,5852
2017-01-10T11:17:22.556Z,5588
2017-01-10T11:18:22.563Z,6284
2017-01-10T11:19:22.641Z,5524
2017-01-10T11:20:22.573Z,4592
2017-01-10T11:21:22.606Z,4216
2017-01-10T11:22:22.588Z,3596
2017-01-10T11:23:22.603Z,3748
2017-01-10T11:24:22.580Z,4396
2017-01-10T11:25:22.623Z,4752
2017-01-10T11:26:22.581Z,6708
2017-01-10T11:27:22.538Z,5460
2017-01-10T11:28:22.626Z,4996
2017-01-10T11:29:22.629Z,5420
2017-01-10T11:30:22.649Z,4668
2017-01-10T11:31:22.559Z,5800
2017-01-10T11:32:22.594Z,5584
2017-01-10T11:33:22.601Z,4704
2017-01-10T11:34:22.618Z,4336
2017-01-10T11:35:22.969Z,3600
2017-01-10T11:36:22.660Z,3828
2017-01-10T11:37:22.566Z,3588
2017-01-10T11:38:22.583Z,3112
2017-01-10T11:39:22.563Z,2708
2017-01-10T11:40:22.630Z,2900
2017-01-10T11:41:22.603Z,3752
2017-01-10T11:42:22.861Z,5484
2017-01-10T11:43:22.643Z,5092
2017-01-10T11:44:22.624Z,5292
2017-01-10T11:45:22.638Z,4768
2017-01-10T11:46:22.739Z,5536
2017-01-10T11:47:22.605Z,5064
2017-01-10T11:48:22.659Z,6312
2017-01-10T11:49:22.640Z,6420
2017-01-10T11:50:22.772Z,5988
2017-01-10T11:51:22.697Z,6720
2017-01-10T11:52:22.596Z,6708
2017-01-10T11:53:22.631Z,5736
2017-01-10T11:54:22.663Z,5932
2017-01-10T11:55:22.615Z,5676
2017-01-10T11:56:22.612Z,4928
2017-01-10T11:57:22.696Z,6572
2017-01-10T11:58:22.666Z,6612
2017-01-10T11:59:22.642Z,6252
2017-01-10T12:00:22.683Z,6804
2017-01-10T12:01:22.629Z,6756
2017-01-10T12:02:22.657Z,4688
2017-01-10T12:03:22.634Z,6272
2017-01-10T12:04:23.244Z,5472
2017-01-10T12:05:22.869Z,4800
2017-01-10T12:06:22.601Z,4732
2017-01-10T12:07:22.604Z,4972
2017-01-10T12:08:22.626Z,5008
2017-01-10T12:09:22.602Z,4788
2017-01-10T12:10:22.756Z,4556
2017-01-10T12:11:22.620Z,4072
2017-01-10T12:12:23.143Z,4144
2017-01-10T12:13:22.634Z,4448
2017-01-10T12:14:22.626Z,4832
2017-01-10T12:15:22.647Z,4780
2017-01-10T12:16:22.695Z,5508
2017-01-10T12:17:22.650Z,5668
2017-01-10T12:18:22.657Z,4972
2017-01-10T12:19:22.621Z,4032
2017-01-10T12:20:22.640Z,4548
2017-01-10T12:21:22.596Z,4512
2017-01-10T12:22:22.607Z,5036
2017-01-10T12:23:22.618Z,5044
2017-01-10T12:24:22.651Z,5060
2017-01-10T12:25:22.658Z,4948
2017-01-10T12:26:22.611Z,4300
2017-01-10T12:27:22.598Z,4168
2017-01-10T12:28:23.354Z,4872
2017-01-10T12:29:22.758Z,4952
2017-01-10T12:30:23.015Z,4644
2017-01-10T12:31:22.685Z,5068
2017-01-10T12:32:22.703Z,4392
2017-01-10T12:33:22.780Z,4188
2017-01-10T12:34:22.671Z,4344
2017-01-10T12:35:22.699Z,4280
2017-01-10T12:36:22.647Z,4144
2017-01-10T12:37:22.824Z,3664
2017-01-10T12:38:22.683Z,3320
2017-01-10T12:39:22.619Z,3064
2017-01-10T12:40:22.673Z,3200
2017-01-10T12:41:22.599Z,3212
2017-01-10T12:42:22.691Z,3256
2017-01-10T12:43:22.745Z,3252
2017-01-10T12:44:22.644Z,3272
2017-01-10T12:45:22.763Z,2912
2017-01-10T12:46:22.660Z,3048
2017-01-10T12:47:22.710Z,3780
2017-01-10T12:48:22.630Z,4212
2017-01-10T12:49:22.648Z,4472
2017-01-10T12:50:22.677Z,4176
2017-01-10T12:51:22.728Z,4248
2017-01-10T12:52:22.723Z,4504
2017-01-10T12:53:22.668Z,4588
2017-01-10T12:54:22.671Z,4016
2017-01-10T12:55:23.113Z,3388
2017-01-10T12:56:22.697Z,2864
2017-01-10T12:57:22.746Z,3028
2017-01-10T12:58:22.676Z,3128
2017-01-10T12:59:22.632Z,3000
2017-01-10T13:00:22.710Z,3200
2017-01-10T13:01:22.670Z,3020
2017-01-10T13:02:22.696Z,2952
2017-01-10T13:03:22.651Z,3084
2017-01-10T13:04:22.777Z,2996
2017-01-10T13:05:22.723Z,2860
2017-01-10T13:06:22.715Z,3016
2017-01-10T13:07:22.699Z,3452
2017-01-10T13:08:22.928Z,3152
2017-01-10T13:09:22.731Z,3392
2017-01-10T13:10:22.754Z,3708
2017-01-10T13:11:23.380Z,4092
2017-01-10T13:12:22.812Z,4156
2017-01-10T13:13:22.673Z,4036
2017-01-10T13:14:22.717Z,4188
2017-01-10T13:15:22.670Z,3888
2017-01-10T13:16:22.697Z,3520
2017-01-10T13:17:23.154Z,3472
2017-01-10T13:18:22.686Z,3452
2017-01-10T13:19:22.710Z,3800
2017-01-10T13:20:23.419Z,3580
2017-01-10T13:21:23.379Z,3540
2017-01-10T13:22:24.039Z,3432
2017-01-10T13:23:23.062Z,3552
2017-01-10T13:24:23.550Z,3708
2017-01-10T13:25:22.911Z,3312
2017-01-10T13:26:23.222Z,3168
2017-01-10T13:27:23.921Z,3348
2017-01-10T13:28:23.091Z,3356
2017-01-10T13:29:22.892Z,3580
2017-01-10T13:30:22.805Z,3684
2017-01-10T13:31:23.608Z,3368
2017-01-10T13:32:23.144Z,2988
2017-01-10T13:33:22.908Z,2756
2017-01-10T13:34:22.786Z,2584
2017-01-10T13:35:22.752Z,2420
2017-01-10T13:36:22.729Z,2344
2017-01-10T13:37:22.829Z,2388
2017-01-10T13:38:23.025Z,2372
2017-01-10T13:39:23.450Z,2308
2017-01-10T13:40:23.093Z,2696
2017-01-10T13:41:22.692Z,2468
2017-01-10T13:42:22.899Z,2648
2017-01-10T13:43:22.750Z,2552
2017-01-10T13:44:22.787Z,2432
2017-01-10T13:45:22.697Z,2660
2017-01-10T13:46:22.709Z,2300
2017-01-10T13:47:23.130Z,2204
2017-01-10T13:48:23.341Z,2164
2017-01-10T13:49:22.659Z,2260
2017-01-10T13:50:22.695Z,2472
2017-01-10T13:51:22.830Z,2520
2017-01-10T13:52:22.675Z,2524
2017-01-10T13:53:22.727Z,2420
2017-01-10T13:54:22.984Z,2336
2017-01-10T13:55:22.686Z,2480
2017-01-10T13:56:24.381Z,2152
2017-01-10T13:57:22.729Z,2088
2017-01-10T13:58:23.152Z,2156
2017-01-10T13:59:22.815Z,2376
2017-01-10T14:00:22.716Z,2004
2017-01-10T14:01:22.713Z,1980
2017-01-10T14:02:22.763Z,2072
2017-01-10T14:03:22.753Z,2228
2017-01-10T14:04:22.788Z,2320
2017-01-10T14:05:23.620Z,2432
2017-01-10T14:06:22.788Z,2432
2017-01-10T14:07:22.692Z,2548
2017-01-10T14:08:23.380Z,2664